Time;durP1;ratioP1;P1;durP2;ratioP2;P2;SDS_P1;SDS_P2;PMS_P1;PMS_P2;Temp;Humidity;BMP_temperature;BMP_pressure;BME280_temperature;BME280_humidity;BME280_pressure;Samples;Min_cycle;Max_cycle;Signal;HPM_P1;HPM_P2
2022/01/20 00:00:44;;;;;;;;;;;-3.30;99.90;;;;;;5075420;28;20032;-59
2022/01/20 00:03:15;;;;;;;564.58;227.85;;;-3.30;99.90;;;;;;5074706;28;20392;-59
2022/01/20 00:27:37;;;;;;;512.30;203.98;;;-3.60;99.90;;;;;;5074567;28;20462;-59
2022/01/20 00:30:29;;;;;;;496.27;205.18;;;-3.60;99.90;;;;;;5074060;28;20401;-59
2022/01/20 00:33:03;;;;;;;522.25;202.40;;;-3.60;99.90;;;;;;5073591;28;20029;-59
2022/01/20 00:37:14;;;;;;;567.05;232.07;;;-3.60;99.90;;;;;;5073295;28;20055;-59
2022/01/20 00:38:19;;;;;;;528.10;211.40;;;-3.50;99.90;;;;;;5055444;28;20031;-59
2022/01/20 00:40:48;;;;;;;802.47;326.02;;;-3.60;99.90;;;;;;5073433;28;20477;-59
2022/01/20 00:43:14;;;;;;;758.75;310.27;;;-3.60;99.90;;;;;;5073465;28;20397;-59
2022/01/20 00:45:40;;;;;;;798.13;318.42;;;-3.60;99.90;;;;;;5073911;28;20025;-59
2022/01/20 00:48:06;;;;;;;751.10;307.00;;;-3.60;99.90;;;;;;5055351;28;20474;-59
2022/01/20 00:50:36;;;;;;;664.22;265.63;;;-3.70;99.90;;;;;;5055367;28;20075;-59
2022/01/20 00:53:03;;;;;;;648.90;264.67;;;-3.70;99.90;;;;;;5055554;28;20043;-59
2022/01/20 00:55:29;;;;;;;621.22;246.05;;;-3.60;99.90;;;;;;5073163;28;20421;-59
2022/01/20 00:57:55;;;;;;;895.40;351.60;;;-3.60;99.90;;;;;;5073451;28;20029;-59
2022/01/20 01:00:21;;;;;;;971.28;375.88;;;-3.60;99.90;;;;;;5073268;28;20021;-59
2022/01/20 01:02:48;;;;;;;640.45;256.35;;;-3.70;99.90;;;;;;5054993;28;20338;-59
2022/01/20 01:05:14;;;;;;;570.28;220.07;;;-3.70;99.90;;;;;;5055257;28;20067;-59
2022/01/20 01:10:22;;;;;;;761.30;308.45;;;-4.00;99.90;;;;;;5071702;28;20112;-59
2022/01/20 01:15:28;;;;;;;570.83;218.50;;;-3.90;99.90;;;;;;5073090;28;20032;-59
2022/01/20 01:23:33;;;;;;;478.88;185.43;;;-3.90;99.90;;;;;;5072886;28;20040;-59
2022/01/20 01:26:01;;;;;;;540.70;210.45;;;-3.90;99.90;;;;;;5072843;28;20257;-59
2022/01/20 01:28:30;;;;;;;573.67;224.05;;;-3.80;99.90;;;;;;5055110;28;20322;-60
2022/01/20 01:33:26;;;;;;;537.05;209.15;;;-3.70;99.90;;;;;;5052593;28;20386;-59
2022/01/20 01:35:56;;;;;;;526.05;209.43;;;-3.70;99.90;;;;;;5053693;28;20086;-59
2022/01/20 01:38:35;;;;;;;499.05;199.30;;;-3.80;99.90;;;;;;5053905;28;20370;-59
2022/01/20 01:41:13;;;;;;;480.88;184.35;;;-3.80;99.90;;;;;;5068737;28;20176;-59
2022/01/20 01:43:43;;;;;;;482.38;186.18;;;-3.80;99.90;;;;;;5054116;28;20033;-59
2022/01/20 01:46:15;;;;;;;479.02;184.35;;;-3.80;99.90;;;;;;5069572;28;20052;-59
2022/01/20 01:48:44;;;;;;;496.08;193.57;;;-3.80;99.90;;;;;;5039337;28;20029;-59
2022/01/20 01:51:12;;;;;;;476.05;187.00;;;-3.80;99.90;;;;;;5039624;28;20033;-59
2022/01/20 01:53:44;;;;;;;511.48;204.38;;;-3.90;99.90;;;;;;5072530;28;20029;-59
2022/01/20 01:56:10;;;;;;;456.83;176.40;;;-3.90;99.90;;;;;;5057022;28;20116;-59
2022/01/20 01:58:38;;;;;;;371.90;148.45;;;-4.00;99.90;;;;;;5072644;28;20029;-60
2022/01/20 02:01:16;;;;;;;371.70;141.68;;;-4.00;99.90;;;;;;5055492;28;20124;-59
2022/01/20 02:03:46;;;;;;;401.17;155.25;;;-4.10;99.90;;;;;;5072308;28;20040;-59
2022/01/20 02:06:49;;;;;;;365.25;143.20;;;-4.20;99.90;;;;;;5038866;28;20098;-59
2022/01/20 02:18:13;;;;;;;388.35;155.38;;;-4.00;99.90;;;;;;5000326;28;20049;-60
2022/01/20 02:20:30;;;;;;;394.80;153.27;;;-3.90;99.90;;;;;;5036493;28;20467;-59
2022/01/20 02:22:59;;;;;;;374.70;147.68;;;-3.80;99.90;;;;;;5035313;28;20084;-59
2022/01/20 02:25:33;;;;;;;355.17;140.57;;;-3.70;99.90;;;;;;5035237;28;20112;-60
2022/01/20 02:28:03;;;;;;;311.45;129.43;;;-3.70;99.90;;;;;;5036290;28;20451;-59
2022/01/20 02:30:30;;;;;;;325.45;132.05;;;-3.90;99.90;;;;;;5065564;28;20516;-59
2022/01/20 02:33:00;;;;;;;358.58;137.48;;;-3.90;99.90;;;;;;5038643;28;20067;-59
2022/01/20 02:35:31;;;;;;;341.97;134.10;;;-3.90;99.90;;;;;;5054854;28;20389;-59
2022/01/20 02:38:07;;;;;;;352.33;139.98;;;-3.90;99.90;;;;;;5055217;28;20306;-59
2022/01/20 02:45:46;;;;;;;354.25;134.98;;;-3.80;99.90;;;;;;5071559;28;20035;-60
2022/01/20 02:48:14;;;;;;;326.98;130.95;;;-3.80;99.90;;;;;;5038337;28;20071;-59
2022/01/20 02:50:40;;;;;;;334.83;128.80;;;-3.70;99.90;;;;;;5056079;28;20402;-59
2022/01/20 02:53:06;;;;;;;359.67;136.45;;;-3.70;99.90;;;;;;5054986;28;20029;-60
2022/01/20 02:55:32;;;;;;;345.00;133.27;;;-3.60;99.90;;;;;;5054655;28;20474;-59
2022/01/20 02:57:59;;;;;;;366.55;143.50;;;-3.60;99.90;;;;;;5070300;28;20075;-60
2022/01/20 03:00:25;;;;;;;355.00;138.45;;;-3.60;99.90;;;;;;5037998;28;20119;-60
2022/01/20 03:02:51;;;;;;;346.35;134.93;;;-3.60;99.90;;;;;;5038077;28;20032;-60
2022/01/20 03:05:18;;;;;;;336.55;136.35;;;-3.70;99.90;;;;;;5038117;28;20032;-59
2022/01/20 03:07:51;;;;;;;315.35;125.63;;;-3.80;99.90;;;;;;5037931;28;20390;-59
2022/01/20 03:10:18;;;;;;;341.05;133.55;;;-3.80;99.90;;;;;;5071233;28;20052;-59
2022/01/20 03:12:44;;;;;;;328.00;129.88;;;-3.90;99.90;;;;;;5055743;28;20086;-59
2022/01/20 03:15:10;;;;;;;329.52;133.52;;;-3.90;99.90;;;;;;5055778;28;20032;-60
2022/01/20 03:17:36;;;;;;;319.00;128.57;;;-3.90;99.90;;;;;;5055578;28;20083;-59
2022/01/20 03:20:03;;;;;;;344.58;134.23;;;-3.90;99.90;;;;;;5037748;28;20033;-59
2022/01/20 03:22:30;;;;;;;318.05;129.90;;;-4.00;99.90;;;;;;5070780;28;20066;-59
2022/01/20 03:24:57;;;;;;;347.20;140.68;;;-3.90;99.90;;;;;;5070050;28;20411;-60
2022/01/20 03:27:24;;;;;;;340.70;137.60;;;-4.20;99.90;;;;;;5037475;28;20036;-59
2022/01/20 03:29:50;;;;;;;327.35;131.65;;;-4.30;99.90;;;;;;5070784;28;20390;-59
2022/01/20 03:32:16;;;;;;;308.90;125.18;;;-4.30;99.90;;;;;;5037327;28;20044;-59
2022/01/20 03:34:44;;;;;;;314.35;127.28;;;-4.30;99.90;;;;;;5070786;28;20037;-59
2022/01/20 03:37:13;;;;;;;311.02;122.93;;;-4.40;99.90;;;;;;5037311;28;20033;-60
2022/01/20 03:39:59;;;;;;;274.75;114.03;;;-4.40;99.90;;;;;;5054575;28;20041;-59
2022/01/20 03:42:26;;;;;;;280.95;113.45;;;-4.50;99.90;;;;;;5037034;28;20037;-59
2022/01/20 03:44:52;;;;;;;273.63;109.05;;;-4.50;99.90;;;;;;5053966;28;20056;-59
2022/01/20 03:47:20;;;;;;;280.52;111.93;;;-4.50;99.90;;;;;;5037057;28;20035;-59
2022/01/20 03:50:06;;;;;;;307.23;123.72;;;-4.50;99.90;;;;;;5055089;28;20139;-59
2022/01/20 03:52:32;;;;;;;296.80;120.57;;;-4.70;99.90;;;;;;5053583;28;20025;-59
2022/01/20 03:54:58;;;;;;;275.65;117.20;;;-4.60;99.90;;;;;;5053343;28;20550;-59
2022/01/20 03:57:27;;;;;;;272.38;107.70;;;-4.60;99.90;;;;;;5054952;28;20544;-59
2022/01/20 04:00:20;;;;;;;275.80;110.72;;;-4.70;99.90;;;;;;5036923;28;20032;-59
2022/01/20 04:03:03;;;;;;;278.90;111.47;;;-4.60;99.90;;;;;;5053576;28;20035;-59
2022/01/20 04:05:57;;;;;;;276.98;106.15;;;-4.50;99.90;;;;;;5054882;28;20048;-59
2022/01/20 04:08:45;;;;;;;270.77;106.15;;;-4.40;99.90;;;;;;5069868;28;20021;-59
2022/01/20 04:11:15;;;;;;;284.55;110.47;;;-4.20;99.90;;;;;;5036862;28;20048;-59
2022/01/20 04:13:41;;;;;;;291.45;113.38;;;-4.10;99.90;;;;;;5053138;28;20483;-60
2022/01/20 04:16:52;;;;;;;288.33;112.82;;;-4.20;99.90;;;;;;5054138;28;20112;-59
2022/01/20 04:19:19;;;;;;;272.17;106.35;;;-4.10;99.90;;;;;;5036476;28;20410;-59
2022/01/20 04:21:46;;;;;;;243.80;99.93;;;-4.30;99.90;;;;;;5053148;28;20041;-59
2022/01/20 04:24:12;;;;;;;252.77;97.07;;;-4.30;99.90;;;;;;5069876;28;20051;-59
2022/01/20 04:26:40;;;;;;;252.85;98.07;;;-4.30;99.90;;;;;;5070015;28;20029;-59
2022/01/20 04:29:13;;;;;;;258.25;101.90;;;-4.20;99.90;;;;;;5049932;28;20487;-59
2022/01/20 04:31:41;;;;;;;293.88;114.25;;;-4.00;99.90;;;;;;5016858;28;20035;-59
2022/01/20 04:34:08;;;;;;;324.02;124.05;;;-3.80;99.90;;;;;;5016661;28;20033;-59
2022/01/20 04:36:39;;;;;;;296.73;118.68;;;-3.70;99.90;;;;;;5033018;28;20060;-59
2022/01/20 04:39:08;;;;;;;264.83;102.60;;;-3.60;99.90;;;;;;5016808;28;20060;-59
2022/01/20 04:41:35;;;;;;;250.27;98.78;;;-3.60;99.90;;;;;;5034342;28;20026;-59
2022/01/20 04:44:08;;;;;;;233.23;92.65;;;-3.60;99.90;;;;;;5016301;28;20454;-59
2022/01/20 04:46:52;;;;;;;232.32;92.65;;;-3.70;99.90;;;;;;5016717;28;20029;-59
2022/01/20 04:57:26;;;;;;;186.38;74.22;;;-3.50;99.90;;;;;;5032969;28;20437;-59
2022/01/20 04:59:54;;;;;;;196.57;77.22;;;-3.60;99.90;;;;;;5016355;28;20025;-59
2022/01/20 05:02:23;;;;;;;203.60;81.65;;;-3.60;99.90;;;;;;5016346;28;20034;-59
2022/01/20 05:04:53;;;;;;;266.95;105.07;;;-3.60;99.90;;;;;;5032714;28;20026;-59
2022/01/20 05:07:41;;;;;;;269.05;108.80;;;-3.40;99.90;;;;;;5032660;28;20032;-59
2022/01/20 05:10:11;;;;;;;274.25;106.63;;;-3.40;99.90;;;;;;5016688;28;20406;-59
2022/01/20 05:13:02;;;;;;;271.15;108.32;;;-3.30;99.90;;;;;;5016289;28;20116;-59
2022/01/20 05:15:25;;;;;;;273.90;107.32;;;-3.20;99.90;;;;;;5049137;28;20403;-59
2022/01/20 05:17:54;;;;;;;260.17;103.22;;;-3.30;99.90;;;;;;5018396;28;20434;-59
2022/01/20 05:20:20;;;;;;;238.27;98.22;;;-3.30;99.90;;;;;;5019767;28;20026;-59
2022/01/20 05:22:46;;;;;;;243.82;95.90;;;-3.30;99.90;;;;;;5035703;28;20128;-59
2022/01/20 05:25:16;;;;;;;234.85;98.80;;;-3.30;99.90;;;;;;5036344;28;20106;-59
2022/01/20 05:27:43;;;;;;;219.15;90.78;;;-3.30;99.90;;;;;;5019950;28;20364;-59
2022/01/20 05:30:12;;;;;;;196.32;81.78;;;-3.30;99.90;;;;;;5048690;28;20056;-59
2022/01/20 05:32:40;;;;;;;324.90;133.15;;;-3.30;99.90;;;;;;5056233;28;20029;-59
2022/01/20 05:35:07;;;;;;;257.00;109.22;;;-3.30;99.90;;;;;;5057658;28;20037;-59
2022/01/20 05:37:33;;;;;;;238.23;100.07;;;-3.20;99.90;;;;;;5039469;28;20037;-59
2022/01/20 05:39:59;;;;;;;222.65;98.38;;;-3.20;99.90;;;;;;5039407;28;20025;-59
2022/01/20 05:42:28;;;;;;;253.48;101.63;;;-3.00;99.90;;;;;;5039389;28;20082;-59
2022/01/20 05:45:05;;;;;;;328.10;134.88;;;-3.00;99.90;;;;;;5039441;28;20040;-59
2022/01/20 05:47:33;;;;;;;302.00;130.63;;;-3.00;99.90;;;;;;5039062;28;20031;-59
2022/01/20 05:50:22;;;;;;;277.63;119.53;;;-3.10;99.90;;;;;;5057536;28;20224;-59
2022/01/20 05:52:49;;;;;;;216.38;91.50;;;-3.10;99.90;;;;;;5039533;28;20039;-59
2022/01/20 05:55:17;;;;;;;182.20;75.10;;;-3.10;99.90;;;;;;5039110;28;20096;-59
2022/01/20 05:57:46;;;;;;;176.85;76.18;;;-3.10;99.90;;;;;;5039352;28;20029;-59
2022/01/20 06:00:17;;;;;;;213.48;88.97;;;-3.00;99.90;;;;;;5039073;28;20029;-59
2022/01/20 06:05:32;;;;;;;267.05;109.03;;;-2.90;99.90;;;;;;5055816;28;20036;-59
2022/01/20 06:07:58;;;;;;;269.10;107.60;;;-2.90;99.90;;;;;;5055276;28;20040;-59
2022/01/20 06:10:24;;;;;;;374.70;125.80;;;-2.90;99.90;;;;;;5056930;28;20032;-59
2022/01/20 06:13:00;;;;;;;501.60;164.40;;;-2.90;99.90;;;;;;5038807;28;20033;-59
2022/01/20 06:15:26;;;;;;;575.55;183.75;;;-2.90;99.90;;;;;;5072050;28;20028;-59
2022/01/20 06:17:53;;;;;;;608.60;198.02;;;-2.80;99.90;;;;;;5058063;28;20029;-59
2022/01/20 06:20:19;;;;;;;580.83;190.57;;;-2.80;99.90;;;;;;5055711;28;20125;-59
2022/01/20 06:22:45;;;;;;;637.60;209.10;;;-2.70;99.90;;;;;;5036034;28;20029;-59
2022/01/20 06:25:12;;;;;;;613.92;202.43;;;-2.70;99.90;;;;;;5061547;28;20034;-59
2022/01/20 06:27:38;;;;;;;571.85;181.93;;;-2.60;99.90;;;;;;5055161;28;20025;-60
2022/01/20 06:30:06;;;;;;;802.13;259.88;;;-2.60;99.90;;;;;;5046166;28;20049;-59
2022/01/20 06:32:32;;;;;;;747.78;242.27;;;-2.60;99.90;;;;;;5036463;28;20535;-60
2022/01/20 06:39:25;;;;;;;721.42;230.23;;;-2.60;99.90;;;;;;4997228;28;21824;-60
2022/01/20 06:41:51;;;;;;;626.58;197.45;;;-2.50;99.90;;;;;;5023326;28;20489;-58
2022/01/20 06:44:18;;;;;;;542.35;158.60;;;-2.50;99.90;;;;;;5030393;28;20035;-59
2022/01/20 06:46:45;;;;;;;569.28;162.23;;;-2.50;99.90;;;;;;5057767;28;20025;-59
2022/01/20 06:49:19;;;;;;;579.25;163.65;;;-2.60;99.90;;;;;;5022411;28;20475;-59
2022/01/20 06:52:05;;;;;;;646.50;187.05;;;-2.50;99.90;;;;;;5044520;28;20036;-59
2022/01/20 06:54:32;;;;;;;695.42;203.10;;;-2.50;99.90;;;;;;5064136;28;20031;-59
2022/01/20 06:56:59;;;;;;;530.70;152.77;;;-2.30;99.90;;;;;;5033969;28;20029;-59
2022/01/20 06:59:26;;;;;;;371.50;126.70;;;-1.90;99.90;;;;;;5033306;28;20026;-59
2022/01/20 07:01:53;;;;;;;580.50;177.70;;;-1.00;99.90;;;;;;5045763;28;20441;-59
2022/01/20 07:04:27;;;;;;;529.67;161.93;;;0.00;99.90;;;;;;5052138;28;20076;-59
2022/01/20 07:06:55;;;;;;;266.77;111.93;;;0.80;99.90;;;;;;5034298;28;20474;-59
2022/01/20 07:09:40;;;;;;;275.05;111.78;;;1.70;99.90;;;;;;5049409;28;20035;-59
2022/01/20 07:12:16;;;;;;;284.08;117.25;;;2.50;99.90;;;;;;5067608;28;20055;-59
2022/01/20 07:14:44;;;;;;;305.55;122.45;;;2.90;99.90;;;;;;5052525;28;20055;-59
2022/01/20 07:17:10;;;;;;;292.80;125.47;;;3.90;99.90;;;;;;5039581;28;20028;-59
2022/01/20 07:19:42;;;;;;;512.65;184.32;;;4.10;98.10;;;;;;5052815;28;20074;-64
2022/01/20 07:22:12;;;;;;;355.77;144.07;;;5.30;97.10;;;;;;5034444;28;20064;-61
2022/01/20 07:24:41;;;;;;;364.23;143.03;;;6.20;94.30;;;;;;5040857;28;20021;-61
2022/01/20 07:27:16;;;;;;;321.15;135.82;;;6.50;92.10;;;;;;5056263;28;20056;-58
2022/01/20 07:29:43;;;;;;;329.60;141.25;;;7.20;82.30;;;;;;5037028;28;20515;-58
2022/01/20 07:32:09;;;;;;;323.70;144.32;;;7.40;77.70;;;;;;5060150;28;20060;-58
2022/01/20 07:34:36;;;;;;;329.90;147.80;;;6.70;85.10;;;;;;5037215;28;20052;-59
2022/01/20 07:37:02;;;;;;;327.63;148.50;;;7.20;85.60;;;;;;5037479;28;20066;-59
2022/01/20 07:39:28;;;;;;;347.50;154.25;;;7.30;85.40;;;;;;5037369;28;20387;-59
2022/01/20 07:41:54;;;;;;;368.20;164.30;;;7.00;84.40;;;;;;5030402;28;20116;-59
2022/01/20 07:44:39;;;;;;;406.20;174.73;;;7.40;80.70;;;;;;5045602;28;20497;-58
2022/01/20 07:47:24;;;;;;;462.23;208.23;;;7.90;77.70;;;;;;5049466;28;20116;-59
2022/01/20 07:49:50;;;;;;;444.48;201.75;;;8.00;73.40;;;;;;5048490;28;20449;-58
2022/01/20 07:52:16;;;;;;;419.35;198.82;;;8.30;71.10;;;;;;5051488;28;20136;-60
2022/01/20 07:54:43;;;;;;;404.77;181.95;;;9.20;62.00;;;;;;5061854;28;20843;-58
2022/01/20 07:57:10;;;;;;;396.52;182.20;;;9.70;61.70;;;;;;5046917;28;20060;-58
2022/01/20 07:59:36;;;;;;;375.45;169.73;;;9.70;63.60;;;;;;5067625;28;20029;-58
2022/01/20 08:02:02;;;;;;;381.00;170.07;;;10.50;55.00;;;;;;5029896;28;20653;-59
2022/01/20 08:04:28;;;;;;;358.05;156.32;;;10.40;53.80;;;;;;5064347;28;20079;-59
2022/01/20 08:06:58;;;;;;;373.70;172.07;;;10.20;53.70;;;;;;5075699;28;20088;-59
2022/01/20 08:09:24;;;;;;;389.75;169.13;;;9.80;63.50;;;;;;5056635;28;20047;-58
2022/01/20 08:11:56;;;;;;;423.35;184.05;;;10.20;57.70;;;;;;5047068;28;20996;-58
2022/01/20 08:14:40;;;;;;;399.42;172.45;;;10.60;57.00;;;;;;5046941;28;20091;-59
2022/01/20 08:17:09;;;;;;;375.08;167.13;;;10.80;56.00;;;;;;5060699;28;20028;-57
2022/01/20 08:19:39;;;;;;;365.60;161.25;;;10.80;51.10;;;;;;5032190;28;20025;-58
2022/01/20 08:22:05;;;;;;;394.60;166.05;;;10.20;51.50;;;;;;5037011;28;20029;-59
2022/01/20 08:24:32;;;;;;;348.13;145.13;;;9.00;61.80;;;;;;5049007;28;20123;-58
2022/01/20 08:26:57;;;;;;;336.48;142.32;;;8.90;60.90;;;;;;5049548;28;20055;-58
2022/01/20 08:29:23;;;;;;;324.70;145.23;;;8.50;67.90;;;;;;5039316;28;20075;-60
2022/01/20 08:31:51;;;;;;;354.92;151.00;;;7.90;77.60;;;;;;5035401;28;20033;-58
2022/01/20 08:34:32;;;;;;;397.38;157.70;;;7.60;78.40;;;;;;5024762;28;20029;-58
2022/01/20 08:37:40;;;;;;;405.20;159.10;;;7.00;90.00;;;;;;5021826;28;20033;-58
2022/01/20 08:40:15;;;;;;;341.88;137.85;;;7.00;90.70;;;;;;5054103;28;20062;-59
2022/01/20 08:42:53;;;;;;;334.63;140.73;;;6.80;91.10;;;;;;5049844;28;20026;-58
2022/01/20 08:45:24;;;;;;;371.17;156.27;;;6.60;93.00;;;;;;5056290;28;20025;-58
2022/01/20 08:47:54;;;;;;;387.35;161.60;;;7.00;93.80;;;;;;5037237;28;20402;-58
2022/01/20 08:50:24;;;;;;;337.02;126.20;;;7.60;90.50;;;;;;5036868;28;20025;-58
2022/01/20 08:52:51;;;;;;;257.95;115.03;;;7.90;82.80;;;;;;5036767;28;20086;-58
2022/01/20 08:55:18;;;;;;;308.52;132.65;;;7.40;80.50;;;;;;5037374;28;20037;-58
2022/01/20 08:57:55;;;;;;;332.67;137.40;;;6.90;89.00;;;;;;5058883;28;20072;-58
2022/01/20 09:00:26;;;;;;;336.80;134.07;;;6.50;91.90;;;;;;5057371;28;20628;-58
2022/01/20 09:03:01;;;;;;;312.05;133.00;;;6.70;93.20;;;;;;5040737;28;20040;-58
2022/01/20 09:05:28;;;;;;;311.63;127.45;;;7.20;92.30;;;;;;5074222;28;20140;-58
2022/01/20 09:08:14;;;;;;;319.60;129.10;;;7.40;92.00;;;;;;5040726;28;20029;-58
2022/01/20 09:10:54;;;;;;;354.08;152.43;;;7.40;90.60;;;;;;5074323;28;20029;-58
2022/01/20 09:16:06;;;;;;;397.08;164.90;;;7.50;94.00;;;;;;5040678;28;20062;-58
2022/01/20 09:18:49;;;;;;;355.25;153.13;;;7.60;91.80;;;;;;5050738;28;20040;-58
2022/01/20 09:21:21;;;;;;;392.30;166.55;;;7.80;91.50;;;;;;5077299;28;20111;-58
2022/01/20 09:23:48;;;;;;;398.65;162.32;;;7.60;92.60;;;;;;5077027;28;20386;-58
2022/01/20 09:26:16;;;;;;;308.30;127.00;;;7.60;92.40;;;;;;5077180;28;20056;-58
2022/01/20 09:28:43;;;;;;;308.50;129.07;;;7.50;92.40;;;;;;5060588;28;20474;-58
2022/01/20 09:31:14;;;;;;;;;;;7.30;92.20;;;;;;5077112;28;20426;-60
2022/01/20 09:33:40;;;;;;;379.35;148.90;;;7.20;92.20;;;;;;5040503;28;20035;-58
2022/01/20 09:36:12;;;;;;;355.42;143.13;;;7.10;92.60;;;;;;5040008;28;20056;-58
2022/01/20 09:38:39;;;;;;;343.23;144.90;;;6.90;93.00;;;;;;5040374;28;20036;-58
2022/01/20 09:41:12;;;;;;;395.30;159.35;;;6.70;94.30;;;;;;5039486;28;20040;-59
2022/01/20 09:43:38;;;;;;;395.63;162.35;;;6.50;94.20;;;;;;5057819;28;20466;-58
2022/01/20 09:46:04;;;;;;;361.60;151.70;;;6.40;95.60;;;;;;5058055;28;20036;-58
2022/01/20 09:48:39;;;;;;;350.38;148.00;;;6.40;95.20;;;;;;5040140;28;20061;-59
2022/01/20 09:51:19;;;;;;;323.83;140.55;;;6.30;95.50;;;;;;5040034;28;20027;-59
2022/01/20 09:53:58;;;;;;;393.80;166.05;;;6.40;96.20;;;;;;5039767;28;20033;-59
2022/01/20 09:56:27;;;;;;;452.30;194.40;;;6.30;96.30;;;;;;5057617;28;20040;-59
2022/01/20 09:58:53;;;;;;;425.77;189.70;;;6.30;96.80;;;;;;5039845;28;20454;-60
2022/01/20 10:01:40;;;;;;;437.95;196.85;;;6.30;97.50;;;;;;5039500;28;20086;-60
2022/01/20 10:04:32;;;;;;;430.75;195.70;;;6.40;97.50;;;;;;5039676;28;20117;-59
2022/01/20 10:07:06;;;;;;;452.25;197.48;;;6.60;97.50;;;;;;5039094;28;20033;-60
2022/01/20 10:09:41;;;;;;;513.33;226.32;;;6.70;97.70;;;;;;5038631;28;20021;-59
2022/01/20 10:12:31;;;;;;;;;;;6.70;96.80;;;;;;5048894;28;20387;-60
2022/01/20 10:15:08;;;;;;;490.90;223.75;;;6.70;97.30;;;;;;5036541;28;19912;-60
2022/01/20 10:18:04;;;;;;;474.98;215.40;;;6.80;97.80;;;;;;5045580;28;20039;-60
2022/01/20 10:20:30;;;;;;;483.42;214.90;;;6.80;96.70;;;;;;5066641;28;20546;-61
2022/01/20 10:23:12;;;;;;;433.95;197.73;;;6.80;97.50;;;;;;5047091;28;20035;-60
2022/01/20 10:26:18;;;;;;;481.33;207.07;;;6.90;96.70;;;;;;5024766;28;20302;-60
2022/01/20 10:29:05;;;;;;;442.63;187.45;;;7.00;97.30;;;;;;5032892;28;20078;-60
2022/01/20 10:31:41;;;;;;;421.63;188.73;;;7.10;96.90;;;;;;5067726;28;20538;-61
2022/01/20 10:34:31;;;;;;;435.20;192.40;;;7.30;96.30;;;;;;5036394;28;20067;-57
2022/01/20 10:37:17;;;;;;;433.77;179.05;;;7.40;96.70;;;;;;5036898;28;20039;-57
2022/01/20 10:40:08;;;;;;;419.23;180.27;;;7.40;96.80;;;;;;5046566;28;20052;-58
2022/01/20 10:42:42;;;;;;;419.90;182.98;;;7.50;96.30;;;;;;5025225;28;20025;-58
2022/01/20 10:45:19;;;;;;;396.00;171.10;;;7.60;96.20;;;;;;5035307;28;20033;-55
2022/01/20 10:47:58;;;;;;;400.20;174.68;;;7.70;96.40;;;;;;5051860;28;20039;-55
2022/01/20 10:50:27;;;;;;;435.58;186.68;;;7.80;96.30;;;;;;5023559;28;20083;-55
2022/01/20 10:52:59;;;;;;;427.83;185.27;;;8.00;96.60;;;;;;5055731;28;20122;-55
2022/01/20 10:55:34;;;;;;;484.38;219.32;;;8.20;96.40;;;;;;5048953;28;20025;-55
2022/01/20 10:58:22;;;;;;;476.27;217.48;;;8.30;95.50;;;;;;5039798;28;20423;-55
2022/01/20 11:00:51;;;;;;;477.60;210.95;;;8.40;95.50;;;;;;5039997;28;20032;-58
2022/01/20 11:03:19;;;;;;;498.70;214.68;;;8.50;95.60;;;;;;5050091;28;20047;-58
2022/01/20 11:05:50;;;;;;;485.75;217.07;;;8.60;95.10;;;;;;5046345;28;20082;-55
2022/01/20 11:08:26;;;;;;;473.60;213.25;;;8.60;94.40;;;;;;5071477;28;20522;-55
2022/01/20 11:10:54;;;;;;;486.60;220.07;;;8.60;94.10;;;;;;5035400;28;20024;-56
2022/01/20 11:13:39;;;;;;;501.38;227.23;;;8.60;94.50;;;;;;5032794;28;20029;-54
2022/01/20 11:16:05;;;;;;;488.50;225.02;;;8.60;95.00;;;;;;5033267;28;20037;-55
2022/01/20 11:18:31;;;;;;;488.70;226.35;;;8.60;95.80;;;;;;5031713;28;20035;-55
2022/01/20 11:20:59;;;;;;;492.30;229.73;;;8.60;95.10;;;;;;5056798;28;20028;-55
2022/01/20 11:23:42;;;;;;;515.83;230.48;;;8.70;95.70;;;;;;5036438;28;20437;-55
2022/01/20 11:26:27;;;;;;;481.08;227.43;;;8.70;95.00;;;;;;5050481;28;20127;-55
2022/01/20 11:29:00;;;;;;;503.73;228.18;;;8.70;95.60;;;;;;5045629;28;20036;-55
2022/01/20 11:31:45;;;;;;;553.70;252.50;;;8.90;95.40;;;;;;5053832;28;20098;-55
2022/01/20 11:34:26;;;;;;;;;;;9.00;95.60;;;;;;5037118;28;20029;-57
2022/01/20 11:36:52;;;;;;;614.53;284.70;;;9.10;95.40;;;;;;5054479;28;20286;-55
2022/01/20 11:39:23;;;;;;;653.95;298.80;;;9.00;94.80;;;;;;5053640;28;20036;-55
2022/01/20 11:41:50;;;;;;;577.30;271.27;;;9.00;95.50;;;;;;5053225;28;20537;-55
2022/01/20 11:44:31;;;;;;;533.17;244.00;;;8.90;94.70;;;;;;5051661;28;20033;-55
2022/01/20 11:47:09;;;;;;;473.58;205.73;;;9.00;95.30;;;;;;5047865;28;20025;-54
2022/01/20 11:49:37;;;;;;;464.25;205.07;;;9.00;95.20;;;;;;5054965;28;20558;-55
2022/01/20 11:52:03;;;;;;;464.52;196.10;;;9.00;95.40;;;;;;5049899;28;20060;-55
2022/01/20 11:54:35;;;;;;;512.10;234.60;;;8.90;95.80;;;;;;5055380;28;20052;-54
2022/01/20 11:57:27;;;;;;;552.13;243.32;;;8.80;96.20;;;;;;5044685;28;20403;-55
2022/01/20 12:00:00;;;;;;;499.52;215.63;;;8.70;96.30;;;;;;5043741;28;20029;-54
2022/01/20 12:02:38;;;;;;;556.22;247.30;;;8.60;96.30;;;;;;5041855;28;20029;-57
2022/01/20 12:05:29;;;;;;;546.70;236.95;;;8.60;96.60;;;;;;5025891;28;20016;-54
2022/01/20 12:08:17;;;;;;;518.85;226.82;;;8.50;96.90;;;;;;5051023;28;20180;-54
2022/01/20 12:10:57;;;;;;;506.60;221.32;;;8.50;97.50;;;;;;5053854;28;20552;-54
2022/01/20 12:13:23;;;;;;;538.35;238.00;;;8.40;98.00;;;;;;5049506;28;20053;-57
2022/01/20 12:15:58;;;;;;;545.63;240.13;;;8.40;98.40;;;;;;5049846;28;20029;-55
2022/01/20 12:18:25;;;;;;;566.40;243.85;;;8.30;98.90;;;;;;5044217;28;20037;-57
2022/01/20 12:20:51;;;;;;;571.42;249.48;;;8.30;98.50;;;;;;5053063;28;20037;-55
2022/01/20 12:23:20;;;;;;;575.67;252.45;;;8.20;99.20;;;;;;5048643;28;20061;-55
2022/01/20 12:25:47;;;;;;;627.15;287.67;;;8.10;99.50;;;;;;5053370;28;20030;-55
2022/01/20 12:28:15;;;;;;;632.25;287.83;;;8.00;99.40;;;;;;5053732;28;20036;-55
2022/01/20 12:30:47;;;;;;;460.73;198.10;;;7.90;99.90;;;;;;5068555;28;20041;-55
2022/01/20 12:33:15;;;;;;;409.85;176.75;;;8.00;99.90;;;;;;5055816;28;20331;-55
2022/01/20 12:35:44;;;;;;;404.48;179.85;;;7.90;99.90;;;;;;5056523;28;20045;-55
2022/01/20 12:38:30;;;;;;;379.67;164.52;;;7.80;99.90;;;;;;5052281;28;20063;-55
2022/01/20 12:41:15;;;;;;;478.77;213.82;;;7.70;99.90;;;;;;5035815;28;20030;-54
2022/01/20 12:43:45;;;;;;;486.80;220.50;;;7.50;99.90;;;;;;5043210;28;20033;-55
2022/01/20 12:46:14;;;;;;;468.92;216.75;;;7.50;99.90;;;;;;5054519;28;20032;-55
2022/01/20 12:49:11;;;;;;;480.35;217.15;;;7.50;99.90;;;;;;5054206;28;20502;-55
2022/01/20 12:51:53;;;;;;;480.40;221.55;;;7.40;99.90;;;;;;5054451;28;20445;-55
2022/01/20 12:54:28;;;;;;;493.27;232.82;;;7.40;99.90;;;;;;5054401;28;20112;-55
2022/01/20 12:56:56;;;;;;;525.88;248.43;;;7.30;99.90;;;;;;5053626;28;20021;-55
2022/01/20 12:59:25;;;;;;;581.90;269.67;;;7.40;99.90;;;;;;5053074;28;20033;-55
2022/01/20 13:01:53;;;;;;;578.83;274.00;;;7.40;99.90;;;;;;5033861;28;20370;-55
2022/01/20 13:04:22;;;;;;;539.25;259.33;;;7.40;99.90;;;;;;5049517;28;20068;-55
2022/01/20 13:06:57;;;;;;;503.48;232.45;;;7.30;99.90;;;;;;5029906;28;20029;-55
2022/01/20 13:09:35;;;;;;;487.67;216.00;;;7.40;99.90;;;;;;5031938;28;20083;-55
2022/01/20 13:12:02;;;;;;;400.30;172.13;;;7.40;99.90;;;;;;5032832;28;20044;-55
2022/01/20 13:14:49;;;;;;;437.73;194.27;;;7.40;99.90;;;;;;5048966;28;20033;-55
2022/01/20 13:17:22;;;;;;;485.75;226.30;;;7.20;99.90;;;;;;5051606;28;20052;-55
2022/01/20 13:19:50;;;;;;;522.38;249.85;;;7.30;99.90;;;;;;5070478;28;20331;-54
2022/01/20 13:22:55;;;;;;;528.80;243.63;;;7.30;99.90;;;;;;5072521;28;20033;-54
2022/01/20 13:25:27;;;;;;;517.10;237.82;;;7.30;99.90;;;;;;5042780;28;20031;-55
2022/01/20 13:27:56;;;;;;;564.63;270.88;;;7.30;99.90;;;;;;5041508;28;20033;-55
2022/01/20 13:30:29;;;;;;;579.53;286.05;;;7.40;99.90;;;;;;5050375;28;20051;-55
2022/01/20 13:32:57;;;;;;;608.17;302.85;;;7.50;99.90;;;;;;5051314;28;20104;-55
2022/01/20 13:35:26;;;;;;;600.88;293.50;;;7.50;99.90;;;;;;5047127;28;20060;-55
2022/01/20 13:38:04;;;;;;;589.20;287.58;;;7.60;99.90;;;;;;5050390;28;20029;-55
2022/01/20 13:40:32;;;;;;;582.75;285.00;;;7.60;99.90;;;;;;5034003;28;20116;-55
2022/01/20 13:45:43;;;;;;;609.13;316.88;;;7.70;99.90;;;;;;5049893;28;20075;-55
2022/01/20 13:48:12;;;;;;;632.67;334.45;;;7.70;99.90;;;;;;5057543;28;20033;-55
2022/01/20 13:50:44;;;;;;;645.85;349.45;;;7.70;99.90;;;;;;5059586;28;20017;-55